createdAt,value
2017-06-14T00:01:34.553Z,11.30
2017-06-14T00:04:02.063Z,11.20
2017-06-14T00:06:30.323Z,11.30
2017-06-14T00:08:57.868Z,11.30
2017-06-14T00:11:25.468Z,11.30
2017-06-14T00:13:52.964Z,11.40
2017-06-14T00:16:20.514Z,11.40
2017-06-14T00:18:48.007Z,11.40
2017-06-14T00:21:15.609Z,11.40
2017-06-14T00:23:43.102Z,11.40
2017-06-14T00:26:10.683Z,11.40
2017-06-14T00:28:38.239Z,11.40
2017-06-14T00:31:05.731Z,11.40
2017-06-14T00:33:33.271Z,11.40
2017-06-14T00:36:01.517Z,11.40
2017-06-14T00:38:29.131Z,11.40
2017-06-14T00:40:56.714Z,11.40
2017-06-14T00:43:24.261Z,11.40
2017-06-14T00:45:51.783Z,11.50
2017-06-14T00:48:19.312Z,11.50
2017-06-14T00:50:46.807Z,11.50
2017-06-14T00:53:14.587Z,11.50
2017-06-14T00:55:42.119Z,11.40
2017-06-14T00:58:09.659Z,11.40
2017-06-14T01:00:37.191Z,11.40
2017-06-14T01:03:04.646Z,11.50
2017-06-14T01:05:32.122Z,11.50
2017-06-14T01:08:00.369Z,11.60
2017-06-14T01:10:28.094Z,11.60
2017-06-14T01:12:55.546Z,11.60
2017-06-14T01:15:23.309Z,11.70
2017-06-14T01:17:50.790Z,11.70
2017-06-14T01:20:18.250Z,11.80
2017-06-14T01:22:45.730Z,11.70
2017-06-14T01:25:13.438Z,11.60
2017-06-14T01:27:41.117Z,11.60
2017-06-14T01:30:08.628Z,11.60
2017-06-14T01:32:36.141Z,11.60
2017-06-14T01:35:03.687Z,11.70
2017-06-14T01:37:31.150Z,11.80
2017-06-14T01:39:58.611Z,11.80
2017-06-14T01:42:26.443Z,11.70
2017-06-14T01:44:53.993Z,11.60
2017-06-14T01:47:21.527Z,11.50
2017-06-14T01:49:48.991Z,11.50
2017-06-14T01:52:16.450Z,11.60
2017-06-14T01:54:43.970Z,11.50
2017-06-14T01:57:11.439Z,11.30
2017-06-14T01:59:39.749Z,11.00
2017-06-14T02:02:07.213Z,11.10
2017-06-14T02:04:34.697Z,11.10
2017-06-14T02:07:02.178Z,11.00
2017-06-14T02:09:30.401Z,10.70
2017-06-14T02:11:57.889Z,10.60
2017-06-14T02:14:25.390Z,10.50
2017-06-14T02:16:52.899Z,10.30
2017-06-14T02:19:20.650Z,10.20
2017-06-14T02:21:48.120Z,10.20
2017-06-14T02:24:15.618Z,10.00
2017-06-14T02:26:43.166Z,9.90
2017-06-14T02:29:10.674Z,9.90
2017-06-14T02:31:38.204Z,9.80
2017-06-14T02:34:05.687Z,9.80
2017-06-14T02:36:33.157Z,9.70
2017-06-14T02:39:00.676Z,9.70
2017-06-14T02:41:28.191Z,9.60
2017-06-14T02:43:56.484Z,9.40
2017-06-14T02:46:24.094Z,9.40
2017-06-14T02:48:51.678Z,9.30
2017-06-14T02:51:19.129Z,9.20
2017-06-14T02:53:47.353Z,9.10
2017-06-14T02:56:14.890Z,9.10
2017-06-14T02:58:42.397Z,9.10
2017-06-14T03:01:10.122Z,9.10
2017-06-14T03:03:37.621Z,9.00
2017-06-14T03:06:05.147Z,9.00
2017-06-14T03:08:32.899Z,9.00
2017-06-14T03:11:00.659Z,9.00
2017-06-14T03:13:28.262Z,8.90
2017-06-14T03:15:55.721Z,9.00
2017-06-14T03:18:23.226Z,9.00
2017-06-14T03:20:56.525Z,9.00
2017-06-14T03:23:24.057Z,9.00
2017-06-14T03:25:51.577Z,9.10
2017-06-14T03:28:19.033Z,9.20
2017-06-14T03:30:46.491Z,9.30
2017-06-14T03:33:13.962Z,9.50
2017-06-14T03:35:41.433Z,9.70
2017-06-14T03:38:09.220Z,9.70
2017-06-14T03:40:36.712Z,9.80
2017-06-14T03:43:04.186Z,9.80
2017-06-14T03:45:32.425Z,9.70
2017-06-14T03:47:59.886Z,9.70
2017-06-14T03:50:27.398Z,9.80
2017-06-14T03:52:54.854Z,9.90
2017-06-14T03:55:22.379Z,10.10
2017-06-14T03:57:50.193Z,10.30
2017-06-14T04:00:17.958Z,10.40
2017-06-14T04:02:45.850Z,10.50
2017-06-14T04:05:13.345Z,10.50
2017-06-14T04:07:40.846Z,10.60
2017-06-14T04:10:09.337Z,10.80
2017-06-14T04:12:37.670Z,10.80
2017-06-14T04:15:05.160Z,10.80
2017-06-14T04:17:32.902Z,11.00
2017-06-14T04:20:00.367Z,11.10
2017-06-14T04:22:28.118Z,11.20
2017-06-14T04:24:55.644Z,11.30
2017-06-14T04:27:23.205Z,11.50
2017-06-14T04:29:56.473Z,11.70
2017-06-14T04:32:24.398Z,11.90
2017-06-14T04:34:51.865Z,11.90
2017-06-14T04:37:19.349Z,12.10
2017-06-14T04:39:47.170Z,12.20
2017-06-14T04:42:14.629Z,12.40
2017-06-14T04:44:42.122Z,12.60
2017-06-14T04:47:09.941Z,12.90
2017-06-14T04:49:37.702Z,12.80
2017-06-14T04:52:05.202Z,12.90
2017-06-14T04:54:32.667Z,12.80
2017-06-14T04:57:00.205Z,12.80
2017-06-14T04:59:27.666Z,12.90
2017-06-14T05:01:55.145Z,13.00
2017-06-14T05:04:23.390Z,13.30
2017-06-14T05:06:51.066Z,13.30
2017-06-14T05:09:19.195Z,13.40
2017-06-14T05:11:46.714Z,13.60
2017-06-14T05:14:14.273Z,13.80
2017-06-14T05:16:41.778Z,14.00
2017-06-14T05:19:09.242Z,14.40
2017-06-14T05:21:36.799Z,15.50
2017-06-14T05:24:04.254Z,17.40
2017-06-14T05:26:31.750Z,19.60
2017-06-14T05:28:59.986Z,22.60
2017-06-14T05:31:27.442Z,22.60
2017-06-14T05:33:54.966Z,24.10
2017-06-14T05:36:22.483Z,22.00
2017-06-14T05:38:49.952Z,21.90
2017-06-14T05:41:17.740Z,23.10
2017-06-14T05:43:45.520Z,24.80
2017-06-14T05:46:13.036Z,25.20
2017-06-14T05:48:40.718Z,24.20
2017-06-14T05:51:08.263Z,24.00
2017-06-14T05:53:35.762Z,25.70
2017-06-14T05:56:03.269Z,25.30
2017-06-14T05:58:30.751Z,25.20
2017-06-14T06:00:58.515Z,26.70
2017-06-14T06:03:26.060Z,27.70
2017-06-14T06:05:53.568Z,27.60
2017-06-14T06:08:21.052Z,27.40
2017-06-14T06:10:48.624Z,26.60
2017-06-14T06:13:16.139Z,27.40
2017-06-14T06:15:43.962Z,28.10
2017-06-14T06:18:13.170Z,29.20
2017-06-14T06:20:40.680Z,29.20
2017-06-14T06:23:08.211Z,29.40
2017-06-14T06:25:35.793Z,28.50
2017-06-14T06:28:03.288Z,27.50
2017-06-14T06:30:30.866Z,27.80
2017-06-14T06:32:58.577Z,25.80
2017-06-14T06:35:26.128Z,25.00
2017-06-14T06:37:53.620Z,26.00
2017-06-14T06:40:21.392Z,24.50
2017-06-14T06:42:48.986Z,23.90
2017-06-14T06:45:16.527Z,24.50
2017-06-14T06:47:44.156Z,23.00
2017-06-14T06:50:11.647Z,21.30
2017-06-14T06:52:40.424Z,21.10
2017-06-14T06:55:07.927Z,21.50
2017-06-14T06:57:35.720Z,21.60
2017-06-14T07:00:03.573Z,21.30
2017-06-14T07:02:31.072Z,20.10
2017-06-14T07:04:58.587Z,18.90
2017-06-14T07:07:26.148Z,20.50
2017-06-14T07:09:53.911Z,22.70
2017-06-14T07:12:21.463Z,22.90
2017-06-14T07:14:49.230Z,22.60
2017-06-14T07:17:16.763Z,21.20
2017-06-14T07:19:44.323Z,19.70
2017-06-14T07:22:11.844Z,19.20
2017-06-14T07:24:39.396Z,18.90
2017-06-14T07:27:07.223Z,19.00
2017-06-14T07:29:34.734Z,18.40
2017-06-14T07:32:03.075Z,18.80
2017-06-14T07:34:30.588Z,18.80
2017-06-14T07:36:58.376Z,19.20
2017-06-14T07:39:25.903Z,20.40
2017-06-14T07:41:53.437Z,20.60
2017-06-14T07:44:21.712Z,20.40
2017-06-14T07:46:50.043Z,22.10
2017-06-14T07:49:17.547Z,22.00
2017-06-14T07:51:45.056Z,23.10
2017-06-14T07:54:12.759Z,24.80
2017-06-14T07:56:40.267Z,26.20
2017-06-14T07:59:07.754Z,25.70
2017-06-14T08:01:35.300Z,26.20
2017-06-14T08:04:02.823Z,25.30
2017-06-14T08:06:30.350Z,23.30
2017-06-14T08:08:57.955Z,23.80
2017-06-14T08:11:25.443Z,24.50
2017-06-14T08:13:53.233Z,24.50
2017-06-14T08:16:20.763Z,25.60
2017-06-14T08:18:48.263Z,26.00
2017-06-14T08:21:15.774Z,26.10
2017-06-14T08:23:43.268Z,25.50
2017-06-14T08:26:11.163Z,24.50
2017-06-14T08:28:38.717Z,22.40
2017-06-14T08:31:06.212Z,20.70
2017-06-14T08:33:33.723Z,20.10
2017-06-14T08:36:01.216Z,19.70
2017-06-14T08:38:28.770Z,20.40
2017-06-14T08:40:56.270Z,22.40
2017-06-14T08:43:23.763Z,24.70
2017-06-14T08:45:51.313Z,26.50
2017-06-14T08:48:18.834Z,24.60
2017-06-14T08:50:46.380Z,24.30
2017-06-14T08:53:13.962Z,24.90
2017-06-14T08:55:41.772Z,26.30
2017-06-14T08:58:09.331Z,24.80
2017-06-14T09:00:36.884Z,23.50
2017-06-14T09:03:04.403Z,23.10
2017-06-14T09:05:31.899Z,23.70
2017-06-14T09:07:59.392Z,22.90
2017-06-14T09:10:27.668Z,23.80
2017-06-14T09:12:56.072Z,24.50
2017-06-14T09:15:23.656Z,24.50
2017-06-14T09:17:51.162Z,24.90
2017-06-14T09:20:18.733Z,25.20
2017-06-14T09:22:46.248Z,25.50
2017-06-14T09:25:13.956Z,24.60
2017-06-14T09:27:41.492Z,22.90
2017-06-14T09:30:09.050Z,22.10
2017-06-14T09:32:36.779Z,22.00
2017-06-14T09:35:04.353Z,22.10
2017-06-14T09:37:31.950Z,22.20
2017-06-14T09:39:59.512Z,22.20
2017-06-14T09:42:27.032Z,22.30
2017-06-14T09:44:55.335Z,22.00
2017-06-14T09:47:22.889Z,21.90
2017-06-14T09:49:50.681Z,22.00
2017-06-14T09:52:18.204Z,22.00
2017-06-14T09:54:45.911Z,21.90
2017-06-14T09:57:13.412Z,21.50
2017-06-14T09:59:40.925Z,21.70
2017-06-14T10:02:08.418Z,21.20
2017-06-14T10:04:36.704Z,20.40
2017-06-14T10:07:04.504Z,20.30
2017-06-14T10:09:32.263Z,20.60
2017-06-14T10:11:59.799Z,20.80
2017-06-14T10:14:27.509Z,21.00
2017-06-14T10:16:55.349Z,21.00
2017-06-14T10:19:23.109Z,21.20
2017-06-14T10:21:50.600Z,21.50
2017-06-14T10:24:18.112Z,21.70
2017-06-14T10:26:45.602Z,21.80
2017-06-14T10:29:13.116Z,21.40
2017-06-14T10:31:40.618Z,20.90
2017-06-14T10:34:08.123Z,21.10
2017-06-14T10:36:35.628Z,21.50
2017-06-14T10:39:03.207Z,21.50
2017-06-14T10:41:30.747Z,20.90
2017-06-14T10:43:58.399Z,21.20
2017-06-14T10:46:25.907Z,21.10
2017-06-14T10:48:53.459Z,20.90
2017-06-14T10:51:21.314Z,20.70
2017-06-14T10:53:48.869Z,20.50
2017-06-14T10:56:17.122Z,20.10
2017-06-14T10:58:45.287Z,20.10
2017-06-14T11:01:12.820Z,19.90
2017-06-14T11:03:40.400Z,20.20
2017-06-14T11:06:07.940Z,20.10
2017-06-14T11:08:35.497Z,19.70
2017-06-14T11:11:03.055Z,19.90
2017-06-14T11:13:30.539Z,20.40
2017-06-14T11:15:58.052Z,20.60
2017-06-14T11:18:25.587Z,20.20
2017-06-14T11:20:53.184Z,20.20
2017-06-14T11:23:20.748Z,20.50
2017-06-14T11:25:48.313Z,20.70
2017-06-14T11:28:15.814Z,20.70
2017-06-14T11:30:43.302Z,21.00
2017-06-14T11:33:10.818Z,21.30
2017-06-14T11:35:39.075Z,21.00
2017-06-14T11:38:06.641Z,21.00
2017-06-14T11:40:34.475Z,21.30
2017-06-14T11:43:01.999Z,21.20
2017-06-14T11:45:29.506Z,21.20
2017-06-14T11:47:57.008Z,21.30
2017-06-14T11:50:24.783Z,21.00
2017-06-14T11:52:52.495Z,21.00
2017-06-14T11:55:20.027Z,21.20
2017-06-14T11:57:47.863Z,20.70
2017-06-14T12:00:15.371Z,20.80
2017-06-14T12:02:43.673Z,21.40
2017-06-14T12:05:11.163Z,21.40
2017-06-14T12:07:38.725Z,21.50
2017-06-14T12:10:06.583Z,21.70
2017-06-14T12:12:34.092Z,21.60
2017-06-14T12:15:02.636Z,21.30
2017-06-14T12:17:30.275Z,21.30
2017-06-14T12:19:57.803Z,21.50
2017-06-14T12:22:25.322Z,21.50
2017-06-14T12:24:52.855Z,21.70
2017-06-14T12:27:20.382Z,21.60
2017-06-14T12:29:48.184Z,21.40
2017-06-14T12:32:15.712Z,21.70
2017-06-14T12:34:43.227Z,21.40
2017-06-14T12:37:11.756Z,21.40
2017-06-14T12:39:39.519Z,21.40
2017-06-14T12:42:07.040Z,21.40
2017-06-14T12:44:34.534Z,21.70
2017-06-14T12:47:02.072Z,21.70
2017-06-14T12:49:29.615Z,21.50
2017-06-14T12:51:57.188Z,21.60
2017-06-14T12:54:24.746Z,21.60
2017-06-14T12:56:52.260Z,21.70
2017-06-14T12:59:20.911Z,21.70
2017-06-14T13:01:48.458Z,21.60
2017-06-14T13:04:15.968Z,21.60
2017-06-14T13:06:44.455Z,20.90
2017-06-14T13:09:11.967Z,20.90
2017-06-14T13:11:39.463Z,21.20
2017-06-14T13:14:07.171Z,21.20
2017-06-14T13:16:34.730Z,21.30
2017-06-14T13:19:02.220Z,21.60
2017-06-14T13:21:29.771Z,21.80
2017-06-14T13:23:57.307Z,21.90
2017-06-14T13:26:24.832Z,21.70
2017-06-14T13:28:52.373Z,21.70
2017-06-14T13:31:19.939Z,21.50
2017-06-14T13:33:47.497Z,21.60
2017-06-14T13:36:14.987Z,21.70
2017-06-14T13:38:42.839Z,21.70
2017-06-14T13:41:10.326Z,21.90
2017-06-14T13:43:37.872Z,22.00
2017-06-14T13:46:05.399Z,22.10
2017-06-14T13:48:32.892Z,22.10
2017-06-14T13:51:00.441Z,21.90
2017-06-14T13:53:27.989Z,21.80
2017-06-14T13:55:55.514Z,21.90
2017-06-14T13:58:23.067Z,22.10
2017-06-14T14:00:50.587Z,22.20
2017-06-14T14:03:18.163Z,22.70
2017-06-14T14:05:46.990Z,22.70
2017-06-14T14:08:14.628Z,22.70
2017-06-14T14:10:42.119Z,22.60
2017-06-14T14:13:09.758Z,22.40
2017-06-14T14:15:37.247Z,22.70
2017-06-14T14:18:04.811Z,22.40
2017-06-14T14:20:32.370Z,22.10
2017-06-14T14:22:59.903Z,22.00
2017-06-14T14:25:27.814Z,22.00
2017-06-14T14:27:56.063Z,22.50
2017-06-14T14:30:23.900Z,22.50
2017-06-14T14:32:51.683Z,22.80
2017-06-14T14:35:19.539Z,22.50
2017-06-14T14:37:47.100Z,22.50
2017-06-14T14:40:14.587Z,22.40
2017-06-14T14:42:42.097Z,22.40
2017-06-14T14:45:09.630Z,22.60
2017-06-14T14:47:37.159Z,22.70
2017-06-14T14:50:05.435Z,22.60
2017-06-14T14:52:33.991Z,22.50
2017-06-14T14:55:01.521Z,22.50
2017-06-14T14:57:29.012Z,22.50
2017-06-14T14:59:56.546Z,22.10
2017-06-14T15:02:24.071Z,22.10
2017-06-14T15:04:51.588Z,21.80
2017-06-14T15:07:19.132Z,22.00
2017-06-14T15:09:46.682Z,21.90
2017-06-14T15:12:14.556Z,21.80
2017-06-14T15:14:42.039Z,21.90
2017-06-14T15:17:10.357Z,22.10
2017-06-14T15:19:37.856Z,22.10
2017-06-14T15:22:05.834Z,22.50
2017-06-14T15:24:33.669Z,22.50
2017-06-14T15:27:01.283Z,22.40
2017-06-14T15:29:28.819Z,22.00
2017-06-14T15:31:56.340Z,22.20
2017-06-14T15:34:23.899Z,21.90
2017-06-14T15:36:51.511Z,22.10
2017-06-14T15:39:19.646Z,21.90
2017-06-14T15:41:47.475Z,22.10
2017-06-14T15:44:15.036Z,22.30
2017-06-14T15:46:42.608Z,22.10
2017-06-14T15:49:10.111Z,22.20
2017-06-14T15:51:37.647Z,22.10
2017-06-14T15:54:05.143Z,21.80
2017-06-14T15:56:32.684Z,21.90
2017-06-14T15:59:00.476Z,21.80
2017-06-14T16:01:28.060Z,21.90
2017-06-14T16:03:55.807Z,21.90
2017-06-14T16:06:23.291Z,21.70
2017-06-14T16:08:50.799Z,21.70
2017-06-14T16:11:18.287Z,21.90
2017-06-14T16:13:45.796Z,21.70
2017-06-14T16:16:13.372Z,21.70
2017-06-14T16:18:40.886Z,21.90
2017-06-14T16:21:08.597Z,21.80
2017-06-14T16:23:36.084Z,21.70
2017-06-14T16:26:03.615Z,21.50
2017-06-14T16:28:31.128Z,21.70
2017-06-14T16:30:58.746Z,21.60
2017-06-14T16:33:26.693Z,21.60
2017-06-14T16:35:54.324Z,21.50
2017-06-14T16:38:21.847Z,21.60
2017-06-14T16:40:50.131Z,21.60
2017-06-14T16:43:18.418Z,21.50
2017-06-14T16:45:45.915Z,21.50
2017-06-14T16:48:13.771Z,21.50
2017-06-14T16:50:41.263Z,21.40
2017-06-14T16:53:08.777Z,21.30
2017-06-14T16:55:36.663Z,21.30
2017-06-14T16:58:04.230Z,21.30
2017-06-14T17:00:31.814Z,21.30
2017-06-14T17:03:01.761Z,21.20
2017-06-14T17:05:29.421Z,21.10
2017-06-14T17:07:56.959Z,21.00
2017-06-14T17:10:25.280Z,20.90
2017-06-14T17:12:53.035Z,20.90
2017-06-14T17:15:20.672Z,20.80
2017-06-14T17:17:48.299Z,20.70
2017-06-14T17:20:16.598Z,20.70
2017-06-14T17:22:44.120Z,20.60
2017-06-14T17:25:11.687Z,20.70
2017-06-14T17:27:39.970Z,20.70
2017-06-14T17:30:08.631Z,20.60
2017-06-14T17:32:36.364Z,20.60
2017-06-14T17:35:04.123Z,20.60
2017-06-14T17:37:31.620Z,20.60
2017-06-14T17:39:59.211Z,20.50
2017-06-14T17:42:26.703Z,20.50
2017-06-14T17:44:54.288Z,20.40
2017-06-14T17:47:21.781Z,20.30
2017-06-14T17:49:49.507Z,20.30
2017-06-14T17:52:17.047Z,20.30
2017-06-14T17:54:44.564Z,20.20
2017-06-14T17:57:12.767Z,20.10
2017-06-14T17:59:40.255Z,20.00
2017-06-14T18:02:07.799Z,19.90
2017-06-14T18:04:35.288Z,19.90
2017-06-14T18:07:03.091Z,19.70
2017-06-14T18:09:30.604Z,19.70
2017-06-14T18:11:58.090Z,19.70
2017-06-14T18:14:25.598Z,19.70
2017-06-14T18:16:53.086Z,19.60
2017-06-14T18:19:20.608Z,19.40
2017-06-14T18:21:48.145Z,19.30
2017-06-14T18:24:15.683Z,19.30
2017-06-14T18:26:43.267Z,19.10
2017-06-14T18:29:11.103Z,19.10
2017-06-14T18:31:38.636Z,19.00
2017-06-14T18:34:06.472Z,18.90
2017-06-14T18:36:34.856Z,18.70
2017-06-14T18:39:02.388Z,18.70
2017-06-14T18:41:30.991Z,18.60
2017-06-14T18:43:58.595Z,18.60
2017-06-14T18:46:26.124Z,18.40
2017-06-14T18:48:54.072Z,18.30
2017-06-14T18:51:22.596Z,18.20
2017-06-14T18:53:50.408Z,18.10
2017-06-14T18:56:17.894Z,18.00
2017-06-14T18:58:45.397Z,17.90
2017-06-14T19:01:19.745Z,17.80
2017-06-14T19:03:48.641Z,17.60
2017-06-14T19:06:17.712Z,17.20
2017-06-14T19:08:45.268Z,17.20
2017-06-14T19:11:12.887Z,17.10
2017-06-14T19:13:40.487Z,16.90
2017-06-14T19:16:08.074Z,16.80
2017-06-14T19:18:36.264Z,16.70
2017-06-14T19:21:24.533Z,16.50
2017-06-14T19:23:52.077Z,16.40
2017-06-14T19:26:19.631Z,16.20
2017-06-14T19:28:48.035Z,16.10
2017-06-14T19:31:21.216Z,16.00
2017-06-14T19:33:48.789Z,15.80
2017-06-14T19:36:16.280Z,15.60
2017-06-14T19:38:44.067Z,15.50
2017-06-14T19:41:11.567Z,15.40
2017-06-14T19:43:39.632Z,15.30
2017-06-14T19:46:07.970Z,15.10
2017-06-14T19:48:35.530Z,15.00
2017-06-14T19:51:03.080Z,14.80
2017-06-14T19:53:30.583Z,14.60
2017-06-14T19:55:58.100Z,14.50
2017-06-14T19:58:25.595Z,14.40
2017-06-14T20:00:53.114Z,14.20
2017-06-14T20:03:20.699Z,14.20
2017-06-14T20:05:48.441Z,14.10
2017-06-14T20:08:15.992Z,14.00
2017-06-14T20:10:43.495Z,13.90
2017-06-14T20:13:11.051Z,13.90
2017-06-14T20:15:38.542Z,13.80
2017-06-14T20:18:06.467Z,13.70
2017-06-14T20:20:34.088Z,13.70
2017-06-14T20:23:01.575Z,13.50
2017-06-14T20:25:29.088Z,13.40
2017-06-14T20:27:56.582Z,13.30
2017-06-14T20:30:24.127Z,13.20
2017-06-14T20:32:51.704Z,13.10
2017-06-14T20:35:19.190Z,12.90
2017-06-14T20:37:47.815Z,12.80
2017-06-14T20:40:15.356Z,12.70
2017-06-14T20:42:42.931Z,12.70
2017-06-14T20:45:10.651Z,12.60
2017-06-14T20:47:38.179Z,12.60
2017-06-14T20:50:05.752Z,12.60
2017-06-14T20:52:34.064Z,12.50
2017-06-14T20:55:01.576Z,12.50
2017-06-14T20:57:29.287Z,12.50
2017-06-14T20:59:56.817Z,12.50
2017-06-14T21:02:25.091Z,12.50
2017-06-14T21:04:53.596Z,12.50
2017-06-14T21:07:21.135Z,12.40
2017-06-14T21:09:49.005Z,12.30
2017-06-14T21:12:16.534Z,12.20
2017-06-14T21:14:44.824Z,12.00
2017-06-14T21:17:12.335Z,12.00
2017-06-14T21:19:39.999Z,12.00
2017-06-14T21:22:07.558Z,12.00
2017-06-14T21:24:35.127Z,11.90
2017-06-14T21:27:02.955Z,11.90
2017-06-14T21:29:30.568Z,11.90
2017-06-14T21:31:58.180Z,11.80
2017-06-14T21:34:25.696Z,11.80
2017-06-14T21:36:53.212Z,11.80
2017-06-14T21:39:21.051Z,11.70
2017-06-14T21:41:48.579Z,11.60
2017-06-14T21:44:16.315Z,11.60
2017-06-14T21:46:44.176Z,11.50
2017-06-14T21:49:11.997Z,11.50
2017-06-14T21:51:39.599Z,11.50
2017-06-14T21:54:07.902Z,11.40
2017-06-14T21:56:35.419Z,11.40
2017-06-14T21:59:02.919Z,11.40
2017-06-14T22:01:30.711Z,11.40
2017-06-14T22:03:58.323Z,11.40
2017-06-14T22:06:26.586Z,11.40
2017-06-14T22:08:54.380Z,11.40
2017-06-14T22:11:21.953Z,11.50
2017-06-14T22:13:49.650Z,11.60
2017-06-14T22:16:17.215Z,11.50
2017-06-14T22:18:44.812Z,11.40
2017-06-14T22:21:12.708Z,11.40
2017-06-14T22:23:40.471Z,11.30
2017-06-14T22:26:07.982Z,11.30
2017-06-14T22:28:35.472Z,11.30
2017-06-14T22:31:04.263Z,11.20
2017-06-14T22:33:31.775Z,11.20
2017-06-14T22:35:59.371Z,11.20
2017-06-14T22:38:27.139Z,11.10
2017-06-14T22:40:54.631Z,11.10
2017-06-14T22:43:22.458Z,11.00
2017-06-14T22:45:49.993Z,11.00
2017-06-14T22:48:17.691Z,10.90
2017-06-14T22:50:45.179Z,10.80
2017-06-14T22:53:12.716Z,10.80
2017-06-14T22:55:40.231Z,10.70
2017-06-14T22:58:07.802Z,10.70
2017-06-14T23:00:35.783Z,10.60
2017-06-14T23:03:03.831Z,10.60
2017-06-14T23:05:31.522Z,10.60
2017-06-14T23:07:59.023Z,10.60
2017-06-14T23:10:26.535Z,10.50
2017-06-14T23:12:54.398Z,10.50
2017-06-14T23:15:21.944Z,10.50
2017-06-14T23:17:49.540Z,10.50
2017-06-14T23:20:17.057Z,10.50
2017-06-14T23:22:44.576Z,10.50
2017-06-14T23:25:12.072Z,10.40
2017-06-14T23:27:39.570Z,10.40
2017-06-14T23:30:07.140Z,10.40
2017-06-14T23:32:34.708Z,10.30
2017-06-14T23:35:02.390Z,10.30
2017-06-14T23:37:30.022Z,10.20
2017-06-14T23:39:57.944Z,10.20
2017-06-14T23:42:25.546Z,10.10
2017-06-14T23:44:53.239Z,10.10
2017-06-14T23:47:20.750Z,10.10
2017-06-14T23:49:49.019Z,10.10
2017-06-14T23:52:17.359Z,10.10
2017-06-14T23:54:44.848Z,10.10
2017-06-14T23:57:12.432Z,10.10
2017-06-14T23:59:40.180Z,10.10
